createdAt,value
2019-03-31T00:00:26.696Z,17.50
2019-03-31T00:02:55.169Z,24.80
2019-03-31T00:05:23.634Z,17.23
2019-03-31T00:07:52.113Z,29.17
2019-03-31T00:10:20.558Z,31.30
2019-03-31T00:12:49.019Z,29.53
2019-03-31T00:15:17.520Z,24.00
2019-03-31T00:17:45.976Z,32.27
2019-03-31T00:20:14.534Z,21.57
2019-03-31T00:22:42.966Z,32.37
2019-03-31T00:25:11.502Z,21.30
2019-03-31T00:27:39.966Z,22.97
2019-03-31T00:30:08.499Z,20.77
2019-03-31T00:32:36.943Z,25.00
2019-03-31T00:35:05.654Z,26.03
2019-03-31T00:37:34.122Z,25.00
2019-03-31T00:40:02.834Z,22.90
2019-03-31T00:42:31.275Z,24.40
2019-03-31T00:44:59.729Z,30.13
2019-03-31T00:47:28.173Z,34.40
2019-03-31T00:49:56.650Z,22.57
2019-03-31T00:52:25.174Z,27.90
2019-03-31T00:54:53.657Z,23.90
2019-03-31T00:57:22.162Z,18.10
2019-03-31T00:59:50.625Z,23.73
2019-03-31T01:02:20.934Z,23.17
2019-03-31T01:04:49.390Z,22.87
2019-03-31T01:07:17.925Z,24.77
2019-03-31T01:09:46.472Z,21.73
2019-03-31T01:12:14.994Z,26.53
2019-03-31T01:14:44.110Z,22.10
2019-03-31T01:17:12.925Z,27.53
2019-03-31T01:19:41.525Z,41.07
2019-03-31T01:22:10.060Z,25.10
2019-03-31T01:24:38.572Z,22.00
2019-03-31T01:27:09.449Z,24.03
2019-03-31T01:29:38.066Z,22.47
2019-03-31T01:32:06.592Z,27.43
2019-03-31T01:34:35.732Z,30.40
2019-03-31T01:37:04.525Z,22.37
2019-03-31T01:39:34.409Z,22.40
2019-03-31T01:42:02.915Z,27.53
2019-03-31T01:44:31.369Z,31.73
2019-03-31T01:46:59.925Z,30.77
2019-03-31T01:49:28.385Z,29.97
2019-03-31T01:51:56.819Z,29.83
2019-03-31T01:54:25.258Z,33.10
2019-03-31T01:56:53.762Z,30.97
2019-03-31T01:59:22.202Z,42.40
2019-03-31T02:02:03.296Z,32.20
2019-03-31T02:04:20.813Z,34.20
2019-03-31T02:06:49.254Z,25.77
2019-03-31T02:09:17.699Z,29.33
2019-03-31T02:11:46.149Z,28.67
2019-03-31T02:14:14.616Z,29.23
2019-03-31T02:16:43.043Z,31.43
2019-03-31T02:19:11.513Z,29.20
2019-03-31T02:21:39.942Z,31.43
2019-03-31T02:24:08.398Z,29.77
2019-03-31T02:26:36.866Z,31.20
2019-03-31T02:29:05.305Z,34.70
2019-03-31T02:31:33.762Z,32.63
2019-03-31T02:34:02.214Z,33.67
2019-03-31T02:36:30.935Z,40.77
2019-03-31T02:38:59.395Z,38.10
2019-03-31T02:41:30.620Z,40.17
2019-03-31T02:43:59.091Z,39.57
2019-03-31T02:46:27.565Z,47.37
2019-03-31T02:48:56.028Z,38.00
2019-03-31T02:51:24.730Z,43.17
2019-03-31T02:53:53.256Z,36.07
2019-03-31T02:56:23.046Z,45.90
2019-03-31T02:58:53.881Z,35.47
2019-03-31T03:01:24.390Z,35.97
2019-03-31T03:03:54.234Z,38.37
2019-03-31T03:06:24.245Z,33.77
2019-03-31T03:08:55.087Z,38.73
2019-03-31T03:11:23.819Z,38.13
2019-03-31T03:13:52.802Z,47.07
2019-03-31T03:16:21.824Z,46.50
2019-03-31T03:18:50.331Z,43.23
2019-03-31T03:21:23.450Z,42.00
2019-03-31T03:23:49.334Z,49.70
2019-03-31T03:26:18.211Z,45.27
2019-03-31T03:28:46.650Z,53.13
2019-03-31T03:31:16.707Z,60.90
2019-03-31T03:33:45.790Z,62.43
2019-03-31T03:36:14.638Z,61.47
2019-03-31T03:38:43.176Z,61.40
2019-03-31T03:41:11.701Z,68.57
2019-03-31T03:43:54.021Z,76.30
2019-03-31T03:46:10.325Z,88.77
2019-03-31T03:48:38.814Z,71.53
2019-03-31T03:51:07.317Z,67.93
2019-03-31T03:53:35.775Z,59.83
2019-03-31T03:56:04.351Z,54.07
2019-03-31T03:58:32.800Z,59.57
2019-03-31T04:01:01.502Z,49.30
2019-03-31T04:03:31.250Z,48.60
2019-03-31T04:05:59.751Z,42.90
2019-03-31T04:08:28.195Z,39.70
2019-03-31T04:11:14.130Z,45.23
2019-03-31T04:13:42.612Z,37.60
2019-03-31T04:16:11.065Z,41.03
2019-03-31T04:18:39.523Z,38.90
2019-03-31T04:21:07.965Z,45.47
2019-03-31T04:23:36.443Z,46.50
2019-03-31T04:26:04.874Z,40.67
2019-03-31T04:28:33.330Z,41.40
2019-03-31T04:31:01.811Z,43.07
2019-03-31T04:33:48.402Z,37.53
2019-03-31T04:36:00.559Z,34.90
2019-03-31T04:38:29.024Z,44.93
2019-03-31T04:40:57.503Z,44.80
2019-03-31T04:43:25.998Z,57.87
2019-03-31T04:45:54.475Z,73.60
2019-03-31T04:48:22.919Z,68.40
2019-03-31T04:50:52.208Z,55.23
2019-03-31T04:53:20.875Z,51.33
2019-03-31T04:55:49.353Z,55.73
2019-03-31T04:58:17.800Z,54.10
2019-03-31T05:00:46.262Z,56.17
2019-03-31T05:03:14.697Z,61.03
2019-03-31T05:05:43.201Z,61.50
2019-03-31T05:08:11.636Z,55.03
2019-03-31T05:10:40.103Z,52.20
2019-03-31T05:13:08.631Z,47.10
2019-03-31T05:15:37.073Z,57.37
2019-03-31T05:18:05.597Z,48.87
2019-03-31T05:20:34.089Z,64.67
2019-03-31T05:23:02.566Z,73.37
2019-03-31T05:25:31.025Z,69.00
2019-03-31T05:27:59.615Z,58.97
2019-03-31T05:30:28.063Z,64.07
2019-03-31T05:32:56.541Z,73.60
2019-03-31T05:35:27.013Z,80.50
2019-03-31T05:37:55.167Z,78.23
2019-03-31T05:40:23.654Z,81.33
2019-03-31T05:42:52.215Z,76.50
2019-03-31T05:45:20.721Z,78.80
2019-03-31T05:47:49.192Z,62.77
2019-03-31T05:50:17.643Z,66.47
2019-03-31T05:52:46.113Z,64.40
2019-03-31T05:55:14.581Z,66.40
2019-03-31T05:57:43.367Z,64.77
2019-03-31T06:00:12.162Z,73.37
2019-03-31T06:02:40.685Z,77.60
2019-03-31T06:05:09.363Z,66.97
2019-03-31T06:07:37.843Z,74.07
2019-03-31T06:10:07.195Z,78.40
2019-03-31T06:12:35.674Z,108.67
2019-03-31T06:15:05.127Z,101.43
2019-03-31T06:17:33.596Z,112.67
2019-03-31T06:20:02.057Z,102.97
2019-03-31T06:22:30.537Z,114.10
2019-03-31T06:24:58.980Z,101.57
2019-03-31T06:27:27.525Z,92.90
2019-03-31T06:29:56.041Z,90.23
2019-03-31T06:32:24.501Z,91.90
2019-03-31T06:34:54.875Z,91.63
2019-03-31T06:37:23.396Z,75.63
2019-03-31T06:39:51.841Z,80.10
2019-03-31T06:42:20.304Z,84.73
2019-03-31T06:44:48.785Z,66.17
2019-03-31T06:47:17.323Z,76.43
2019-03-31T06:49:45.863Z,109.93
2019-03-31T06:52:14.335Z,81.20
2019-03-31T06:54:42.817Z,105.17
2019-03-31T06:57:11.261Z,86.10
2019-03-31T06:59:39.730Z,89.80
2019-03-31T07:02:08.185Z,99.27
2019-03-31T07:04:36.655Z,93.83
2019-03-31T07:07:05.118Z,84.57
2019-03-31T07:09:33.576Z,96.10
2019-03-31T07:12:02.045Z,107.10
2019-03-31T07:14:30.533Z,82.83
2019-03-31T07:16:58.980Z,90.73
2019-03-31T07:19:27.476Z,72.03
2019-03-31T07:21:55.918Z,68.80
2019-03-31T07:24:24.378Z,67.07
2019-03-31T07:26:52.860Z,58.97
2019-03-31T07:29:21.316Z,50.57
2019-03-31T07:31:49.861Z,57.20
2019-03-31T07:34:18.391Z,66.40
2019-03-31T07:36:47.119Z,60.13
2019-03-31T07:39:15.840Z,65.97
2019-03-31T07:41:44.548Z,55.40
2019-03-31T07:44:15.347Z,62.17
2019-03-31T07:46:43.435Z,57.10
2019-03-31T07:49:13.780Z,62.33
2019-03-31T07:51:42.257Z,73.93
2019-03-31T07:54:10.719Z,77.47
2019-03-31T07:56:39.182Z,79.27
2019-03-31T07:59:07.615Z,83.63
2019-03-31T08:01:36.074Z,78.23
2019-03-31T08:04:04.592Z,86.00
2019-03-31T08:06:33.131Z,86.57
2019-03-31T08:09:01.597Z,83.77
2019-03-31T08:11:30.039Z,86.50
2019-03-31T08:13:58.496Z,92.93
2019-03-31T08:16:26.973Z,86.93
2019-03-31T08:18:55.462Z,96.20
2019-03-31T08:21:24.011Z,100.57
2019-03-31T08:23:52.569Z,86.07
2019-03-31T08:26:21.018Z,91.33
2019-03-31T08:28:49.478Z,84.47
2019-03-31T08:31:17.929Z,80.13
2019-03-31T08:33:46.422Z,93.37
2019-03-31T08:36:14.867Z,94.87
2019-03-31T08:38:43.340Z,81.73
2019-03-31T08:41:11.784Z,82.30
2019-03-31T08:43:40.349Z,79.40
2019-03-31T08:46:08.801Z,82.93
2019-03-31T08:48:37.307Z,84.50
2019-03-31T08:51:05.755Z,85.70
2019-03-31T08:53:34.205Z,91.63
2019-03-31T08:56:02.663Z,82.37
2019-03-31T08:58:31.103Z,87.17
2019-03-31T09:01:01.512Z,88.83
2019-03-31T09:03:30.052Z,98.17
2019-03-31T09:06:01.956Z,95.10
2019-03-31T09:08:28.754Z,91.90
2019-03-31T09:10:57.295Z,91.10
2019-03-31T09:13:25.758Z,87.73
2019-03-31T09:15:54.294Z,90.37
2019-03-31T09:18:22.762Z,80.47
2019-03-31T09:20:51.314Z,80.93
2019-03-31T09:23:19.778Z,83.90
2019-03-31T09:25:48.226Z,82.50
2019-03-31T09:28:16.715Z,80.10
2019-03-31T09:30:45.231Z,83.60
2019-03-31T09:33:13.672Z,83.43
2019-03-31T09:35:42.119Z,86.10
2019-03-31T09:38:10.568Z,85.20
2019-03-31T09:40:39.010Z,94.03
2019-03-31T09:43:07.467Z,82.97
2019-03-31T09:45:35.933Z,83.87
2019-03-31T09:48:04.466Z,92.33
2019-03-31T09:50:32.976Z,83.77
2019-03-31T09:53:01.435Z,82.07
2019-03-31T09:55:29.909Z,82.17
2019-03-31T09:57:58.428Z,91.27
2019-03-31T10:00:44.574Z,79.83
2019-03-31T10:03:13.131Z,84.17
2019-03-31T10:05:41.658Z,80.03
2019-03-31T10:08:10.128Z,89.97
2019-03-31T10:10:38.588Z,95.40
2019-03-31T10:13:07.117Z,90.03
2019-03-31T10:15:35.596Z,94.03
2019-03-31T10:18:04.076Z,91.83
2019-03-31T10:20:32.534Z,81.13
2019-03-31T10:23:01.012Z,82.27
2019-03-31T10:25:29.463Z,95.43
2019-03-31T10:27:57.977Z,84.60
2019-03-31T10:30:34.013Z,77.77
2019-03-31T10:33:02.537Z,99.67
2019-03-31T10:35:31.067Z,82.87
2019-03-31T10:37:59.582Z,84.80
2019-03-31T10:40:28.038Z,83.53
2019-03-31T10:42:56.488Z,79.10
2019-03-31T10:45:24.959Z,90.47
2019-03-31T10:47:53.593Z,83.80
2019-03-31T10:50:22.070Z,76.63
2019-03-31T10:52:50.526Z,80.20
2019-03-31T10:55:19.051Z,73.10
2019-03-31T10:57:47.511Z,72.17
2019-03-31T11:00:19.042Z,77.30
2019-03-31T11:02:48.359Z,70.67
2019-03-31T11:05:16.890Z,71.10
2019-03-31T11:07:45.340Z,65.90
2019-03-31T11:10:13.876Z,69.67
2019-03-31T11:12:42.352Z,65.10
2019-03-31T11:15:11.183Z,65.23
2019-03-31T11:17:39.714Z,72.63
2019-03-31T11:20:08.397Z,70.10
2019-03-31T11:22:38.514Z,59.63
2019-03-31T11:25:20.209Z,68.50
2019-03-31T11:27:38.283Z,64.20
2019-03-31T11:30:08.261Z,67.03
2019-03-31T11:32:36.755Z,72.37
2019-03-31T11:35:06.383Z,60.50
2019-03-31T11:37:34.937Z,65.30
2019-03-31T11:40:04.704Z,57.03
2019-03-31T11:42:33.168Z,57.63
2019-03-31T11:45:01.703Z,63.43
2019-03-31T11:47:30.244Z,60.97
2019-03-31T11:49:58.772Z,55.97
2019-03-31T11:52:27.310Z,73.97
2019-03-31T11:54:55.781Z,56.63
2019-03-31T11:57:24.243Z,57.93
2019-03-31T11:59:52.699Z,51.03
2019-03-31T12:02:27.277Z,51.63
2019-03-31T12:04:52.097Z,47.93
2019-03-31T12:07:27.772Z,56.90
2019-03-31T12:09:50.745Z,51.20
2019-03-31T12:12:19.219Z,42.47
2019-03-31T12:14:59.792Z,44.20
2019-03-31T12:17:17.894Z,50.10
2019-03-31T12:19:48.815Z,46.30
2019-03-31T12:22:16.558Z,49.70
2019-03-31T12:24:45.097Z,41.57
2019-03-31T12:27:13.529Z,40.03
2019-03-31T12:29:42.005Z,35.67
2019-03-31T12:32:10.502Z,42.77
2019-03-31T12:34:39.046Z,36.13
2019-03-31T12:37:07.606Z,42.90
2019-03-31T12:39:36.167Z,39.90
2019-03-31T12:42:04.954Z,39.27
2019-03-31T12:44:33.493Z,44.07
2019-03-31T12:47:01.975Z,33.10
2019-03-31T12:49:30.472Z,40.87
2019-03-31T12:51:58.991Z,39.53
2019-03-31T12:54:28.365Z,28.70
2019-03-31T12:56:56.889Z,32.40
2019-03-31T12:59:27.223Z,30.27
2019-03-31T13:01:55.566Z,30.50
2019-03-31T13:04:24.040Z,29.60
2019-03-31T13:06:52.491Z,28.90
2019-03-31T13:09:21.104Z,35.93
2019-03-31T13:11:50.508Z,29.30
2019-03-31T13:14:19.151Z,34.63
2019-03-31T13:16:47.589Z,28.30
2019-03-31T13:19:16.057Z,29.83
2019-03-31T13:21:44.503Z,33.83
2019-03-31T13:24:13.007Z,26.30
2019-03-31T13:26:41.554Z,29.30
2019-03-31T13:29:10.958Z,27.10
2019-03-31T13:31:39.418Z,28.27
2019-03-31T13:34:07.983Z,35.23
2019-03-31T13:36:38.347Z,32.23
2019-03-31T13:39:07.482Z,30.80
2019-03-31T13:41:35.933Z,27.60
2019-03-31T13:44:04.504Z,29.70
2019-03-31T13:46:32.983Z,32.67
2019-03-31T13:49:01.461Z,28.37
2019-03-31T13:51:29.923Z,35.20
2019-03-31T13:53:58.369Z,32.10
2019-03-31T13:56:27.955Z,34.40
2019-03-31T13:58:56.670Z,31.33
2019-03-31T14:01:25.217Z,26.43
2019-03-31T14:03:53.716Z,22.67
2019-03-31T14:06:22.210Z,27.13
2019-03-31T14:08:50.652Z,25.27
2019-03-31T14:11:21.713Z,19.40
2019-03-31T14:13:50.364Z,22.73
2019-03-31T14:16:18.884Z,23.33
2019-03-31T14:18:47.336Z,18.73
2019-03-31T14:21:17.710Z,16.03
2019-03-31T14:23:46.152Z,19.27
2019-03-31T14:26:14.605Z,16.10
2019-03-31T14:28:43.062Z,12.63
2019-03-31T14:31:11.516Z,14.97
2019-03-31T14:33:39.959Z,11.73
2019-03-31T14:36:08.449Z,13.30
2019-03-31T14:38:40.231Z,11.37
2019-03-31T14:41:07.093Z,15.37
2019-03-31T14:43:35.535Z,12.13
2019-03-31T14:46:04.010Z,11.67
2019-03-31T14:48:32.550Z,12.27
2019-03-31T14:51:01.109Z,10.70
2019-03-31T14:53:29.543Z,17.33
2019-03-31T14:55:59.919Z,11.50
2019-03-31T14:58:28.435Z,11.87
2019-03-31T15:00:57.893Z,14.70
2019-03-31T15:03:26.331Z,11.77
2019-03-31T15:05:55.667Z,12.70
2019-03-31T15:08:24.136Z,13.30
2019-03-31T15:10:52.581Z,14.97
2019-03-31T15:13:21.065Z,12.60
2019-03-31T15:15:49.495Z,18.27
2019-03-31T15:18:17.937Z,11.53
2019-03-31T15:20:46.380Z,14.57
2019-03-31T15:23:14.825Z,17.80
2019-03-31T15:25:43.389Z,15.17
2019-03-31T15:28:11.856Z,15.93
2019-03-31T15:30:40.314Z,18.80
2019-03-31T15:33:08.801Z,15.80
2019-03-31T15:35:37.878Z,13.63
2019-03-31T15:38:06.537Z,19.67
2019-03-31T15:40:35.013Z,18.83
2019-03-31T15:43:04.453Z,11.83
2019-03-31T15:45:32.901Z,17.63
2019-03-31T15:48:01.354Z,17.53
2019-03-31T15:50:29.788Z,16.73
2019-03-31T15:52:58.326Z,16.03
2019-03-31T15:55:26.839Z,15.27
2019-03-31T15:57:55.289Z,12.33
2019-03-31T16:00:23.746Z,8.93
2019-03-31T16:02:52.303Z,13.13
2019-03-31T16:05:21.069Z,14.37
2019-03-31T16:07:49.545Z,12.07
2019-03-31T16:10:18.151Z,15.13
2019-03-31T16:12:46.582Z,14.10
2019-03-31T16:15:16.577Z,13.20
2019-03-31T16:17:47.919Z,15.40
2019-03-31T16:20:16.483Z,18.83
2019-03-31T16:22:44.954Z,11.23
2019-03-31T16:25:15.108Z,15.53
2019-03-31T16:27:43.673Z,14.40
2019-03-31T16:30:12.354Z,11.10
2019-03-31T16:32:40.829Z,12.30
2019-03-31T16:35:09.357Z,7.73
2019-03-31T16:37:37.837Z,11.53
2019-03-31T16:40:07.013Z,9.07
2019-03-31T16:42:35.455Z,10.00
2019-03-31T16:45:06.635Z,6.53
2019-03-31T16:47:35.088Z,7.70
2019-03-31T16:50:07.015Z,6.43
2019-03-31T16:52:35.463Z,5.50
2019-03-31T16:55:04.854Z,7.07
2019-03-31T16:57:33.304Z,5.77
2019-03-31T17:00:01.790Z,10.80
2019-03-31T17:02:30.232Z,5.43
2019-03-31T17:04:58.687Z,5.83
2019-03-31T17:07:27.161Z,8.00
2019-03-31T17:09:55.619Z,8.03
2019-03-31T17:12:24.090Z,5.77
2019-03-31T17:14:52.604Z,5.30
2019-03-31T17:17:21.084Z,6.47
2019-03-31T17:19:49.550Z,7.23
2019-03-31T17:22:18.005Z,5.33
2019-03-31T17:24:46.477Z,5.60
2019-03-31T17:27:14.934Z,8.33
2019-03-31T17:29:43.396Z,4.43
2019-03-31T17:32:11.899Z,6.77
2019-03-31T17:34:40.368Z,8.17
2019-03-31T17:37:08.837Z,5.37
2019-03-31T17:39:37.379Z,9.83
2019-03-31T17:42:05.846Z,3.27
2019-03-31T17:44:34.318Z,4.67
2019-03-31T17:47:02.850Z,8.33
2019-03-31T17:49:31.298Z,5.73
2019-03-31T17:52:01.405Z,10.00
2019-03-31T17:54:30.918Z,8.03
2019-03-31T17:56:59.450Z,5.97
2019-03-31T17:59:28.037Z,4.20
2019-03-31T18:01:56.491Z,11.83
2019-03-31T18:04:25.012Z,5.67
2019-03-31T18:06:53.510Z,9.60
2019-03-31T18:09:21.970Z,4.50
2019-03-31T18:11:50.450Z,7.13
2019-03-31T18:14:18.890Z,8.33
2019-03-31T18:16:47.411Z,7.27
2019-03-31T18:19:15.858Z,5.30
2019-03-31T18:21:44.316Z,5.30
2019-03-31T18:24:12.754Z,6.87
2019-03-31T18:26:41.235Z,10.23
2019-03-31T18:29:09.791Z,10.80
2019-03-31T18:31:38.344Z,6.30
2019-03-31T18:34:06.825Z,9.07
2019-03-31T18:36:36.878Z,7.20
2019-03-31T18:39:07.039Z,11.50
2019-03-31T18:41:35.497Z,5.07
2019-03-31T18:44:05.926Z,8.97
2019-03-31T18:46:35.304Z,10.80
2019-03-31T18:49:04.038Z,9.63
2019-03-31T18:51:32.541Z,7.80
2019-03-31T18:54:18.955Z,8.73
2019-03-31T18:56:55.014Z,6.70
2019-03-31T18:59:41.115Z,7.27
2019-03-31T19:02:25.163Z,8.73
2019-03-31T19:04:55.111Z,8.93
2019-03-31T19:07:41.377Z,16.20
2019-03-31T19:10:24.045Z,10.00
2019-03-31T19:12:46.282Z,18.03
2019-03-31T19:15:17.265Z,14.23
2019-03-31T19:18:02.545Z,9.50
2019-03-31T19:20:41.561Z,12.40
2019-03-31T19:23:11.702Z,14.60
2019-03-31T19:25:44.503Z,11.83
2019-03-31T19:28:23.663Z,8.47
2019-03-31T19:30:59.657Z,11.23
2019-03-31T19:33:30.615Z,8.67
2019-03-31T19:36:06.856Z,9.07
2019-03-31T19:38:54.880Z,5.87
2019-03-31T19:41:25.001Z,10.00
2019-03-31T19:44:00.519Z,19.20
2019-03-31T19:46:39.295Z,13.70
2019-03-31T19:49:15.357Z,10.93
2019-03-31T19:51:45.514Z,16.37
2019-03-31T19:54:31.771Z,11.00
2019-03-31T19:57:12.153Z,18.60
2019-03-31T19:59:45.149Z,9.80
2019-03-31T20:02:18.083Z,6.87
2019-03-31T20:04:48.163Z,10.93
2019-03-31T20:07:36.556Z,9.67
2019-03-31T20:10:16.828Z,12.90
2019-03-31T20:13:03.266Z,8.73
2019-03-31T20:15:49.409Z,11.80
2019-03-31T20:18:22.540Z,6.57
2019-03-31T20:20:55.407Z,14.27
2019-03-31T20:23:25.518Z,12.77
2019-03-31T20:25:58.549Z,8.43
2019-03-31T20:28:28.686Z,6.43
2019-03-31T20:31:04.825Z,16.67
2019-03-31T20:33:34.903Z,19.53
2019-03-31T20:36:20.813Z,14.33
2019-03-31T20:38:56.850Z,8.93
2019-03-31T20:41:26.971Z,7.20
2019-03-31T20:43:55.467Z,8.70
2019-03-31T20:46:23.934Z,10.43
2019-03-31T20:48:52.616Z,4.57
2019-03-31T20:51:21.077Z,9.37
2019-03-31T20:53:51.491Z,12.37
2019-03-31T20:56:19.919Z,11.30
2019-03-31T20:58:48.378Z,10.80
2019-03-31T21:01:16.867Z,8.77
2019-03-31T21:03:45.423Z,2.70
2019-03-31T21:06:13.872Z,6.57
2019-03-31T21:08:42.369Z,13.10
2019-03-31T21:11:10.841Z,4.60
2019-03-31T21:13:39.307Z,7.57
2019-03-31T21:16:07.755Z,10.03
2019-03-31T21:18:36.227Z,16.97
2019-03-31T21:21:04.734Z,2.90
2019-03-31T21:23:33.186Z,7.30
2019-03-31T21:26:01.668Z,6.53
2019-03-31T21:28:30.138Z,9.40
2019-03-31T21:30:58.573Z,4.60
2019-03-31T21:33:27.026Z,6.73
2019-03-31T21:35:55.471Z,17.83
2019-03-31T21:38:23.953Z,17.13
2019-03-31T21:40:52.385Z,9.67
2019-03-31T21:43:20.816Z,8.47
2019-03-31T21:45:49.273Z,3.93
2019-03-31T21:48:17.745Z,12.87
2019-03-31T21:50:46.192Z,9.83
2019-03-31T21:53:14.759Z,10.43
2019-03-31T21:55:43.207Z,4.80
2019-03-31T21:58:11.639Z,9.70
2019-03-31T22:00:50.314Z,13.00
2019-03-31T22:03:19.239Z,4.40
2019-03-31T22:05:47.914Z,5.60
2019-03-31T22:08:16.427Z,6.30
2019-03-31T22:10:44.878Z,15.17
2019-03-31T22:13:13.311Z,9.77
2019-03-31T22:15:41.788Z,6.53
2019-03-31T22:18:10.241Z,9.57
2019-03-31T22:20:38.990Z,8.63
2019-03-31T22:23:07.691Z,9.57
2019-03-31T22:25:36.189Z,9.60
2019-03-31T22:28:04.759Z,19.03
2019-03-31T22:30:34.980Z,10.97
2019-03-31T22:33:03.556Z,14.23
2019-03-31T22:35:32.055Z,11.97
2019-03-31T22:38:02.452Z,16.20
2019-03-31T22:40:30.756Z,18.47
2019-03-31T22:42:59.196Z,11.50
2019-03-31T22:45:27.664Z,18.83
2019-03-31T22:47:56.108Z,6.50
2019-03-31T22:50:24.654Z,10.93
2019-03-31T22:52:53.247Z,8.63
2019-03-31T22:55:21.681Z,6.20
2019-03-31T22:57:50.215Z,5.43
2019-03-31T23:00:20.330Z,4.63
2019-03-31T23:02:48.767Z,8.13
2019-03-31T23:05:17.268Z,6.47
2019-03-31T23:07:45.696Z,2.30
2019-03-31T23:10:14.222Z,9.40
2019-03-31T23:12:42.681Z,4.07
2019-03-31T23:15:11.196Z,5.50
2019-03-31T23:17:39.696Z,3.23
2019-03-31T23:20:08.172Z,3.33
2019-03-31T23:22:36.682Z,7.20
2019-03-31T23:25:06.153Z,8.13
2019-03-31T23:27:34.634Z,2.63
2019-03-31T23:30:05.082Z,2.20
2019-03-31T23:32:33.542Z,8.00
2019-03-31T23:35:01.993Z,3.37
2019-03-31T23:37:30.450Z,8.77
2019-03-31T23:39:58.883Z,7.43
2019-03-31T23:42:27.359Z,11.17
2019-03-31T23:44:55.811Z,3.80
2019-03-31T23:47:24.301Z,6.73
2019-03-31T23:49:52.765Z,9.33
2019-03-31T23:52:21.298Z,7.40
2019-03-31T23:54:50.618Z,6.60
2019-03-31T23:57:20.736Z,4.20
2019-03-31T23:59:49.185Z,5.33
